Time;durP1;ratioP1;P1;durP2;ratioP2;P2;SDS_P1;SDS_P2;PMS_P1;PMS_P2;Temp;Humidity;BMP_temperature;BMP_pressure;BME280_temperature;BME280_humidity;BME280_pressure;Samples;Min_cycle;Max_cycle;Signal;HPM_P1;HPM_P2
2023/07/04 00:00:21;;;;;;;13.27;10.05;;;;;;;21.34;74.47;99219.84;5020982;28;20029;-90
2023/07/04 00:02:48;;;;;;;14.02;9.88;;;;;;;21.25;74.49;99224.63;5003122;28;20510;-89
2023/07/04 00:05:14;;;;;;;14.27;9.52;;;;;;;21.02;75.67;99221.53;5019108;28;20029;-90
2023/07/04 00:07:41;;;;;;;13.15;9.50;;;;;;;20.92;75.96;99228.28;5020363;28;20071;-90
2023/07/04 00:10:07;;;;;;;11.40;9.35;;;;;;;20.85;75.82;99222.56;5020026;28;20475;-90
2023/07/04 00:12:33;;;;;;;13.98;9.50;;;;;;;20.72;76.11;99210.81;5020270;28;20392;-90
2023/07/04 00:14:59;;;;;;;12.20;9.93;;;;;;;20.83;76.30;99222.09;5020351;28;20032;-90
2023/07/04 00:17:25;;;;;;;13.77;9.75;;;;;;;20.83;75.94;99219.38;5003604;28;20472;-90
2023/07/04 00:19:51;;;;;;;11.15;9.18;;;;;;;20.89;75.64;99212.53;5019731;28;20049;-90
2023/07/04 00:22:16;;;;;;;14.43;9.25;;;;;;;20.92;74.95;99209.91;5019437;28;20033;-90
2023/07/04 00:24:44;;;;;;;12.32;9.55;;;;;;;20.86;75.16;99205.03;5020230;28;20635;-90
2023/07/04 00:27:11;;;;;;;11.43;9.48;;;;;;;20.96;75.48;99218.25;5004277;28;20041;-90
2023/07/04 00:29:38;;;;;;;15.75;9.68;;;;;;;20.86;75.25;99215.97;5020215;28;20033;-90
2023/07/04 00:32:07;;;;;;;16.45;10.18;;;;;;;21.02;74.59;99216.84;5019690;28;20120;-90
2023/07/04 00:34:33;;;;;;;13.45;9.82;;;;;;;21.12;74.51;99221.09;5003570;28;20052;-90
2023/07/04 00:36:59;;;;;;;13.60;10.90;;;;;;;21.11;74.12;99214.03;5003789;28;20033;-90
2023/07/04 00:39:26;;;;;;;14.00;10.48;;;;;;;21.13;73.94;99218.00;5003438;28;20033;-90
2023/07/04 00:41:51;;;;;;;17.00;11.00;;;;;;;21.17;73.63;99221.66;5003075;28;20132;-90
2023/07/04 00:44:22;;;;;;;18.73;10.23;;;;;;;21.19;73.54;99211.16;5019634;28;20075;-89
2023/07/04 00:47:06;;;;;;;13.85;9.80;;;;;;;21.31;72.86;99228.72;5003926;28;20116;-90
2023/07/04 00:49:46;;;;;;;17.83;9.73;;;;;;;21.13;73.49;99219.97;5019629;28;20052;-89
2023/07/04 00:52:23;;;;;;;11.82;9.48;;;;;;;20.99;74.88;99242.19;5019468;28;20473;-89
2023/07/04 00:54:52;;;;;;;14.52;9.75;;;;;;;20.83;75.42;99224.84;5019392;28;20032;-89
2023/07/04 00:57:22;;;;;;;11.35;8.90;;;;;;;20.85;75.00;99228.84;5017975;28;20034;-90
2023/07/04 00:59:52;;;;;;;10.38;8.30;;;;;;;20.87;74.89;99225.75;5018197;28;20138;-90
2023/07/04 01:02:19;;;;;;;10.90;8.63;;;;;;;20.89;74.86;99216.06;5019424;28;20025;-88
2023/07/04 01:04:45;;;;;;;17.10;8.95;;;;;;;21.01;73.90;99234.44;5019723;28;20029;-90
2023/07/04 01:07:23;;;;;;;11.88;8.25;;;;;;;21.07;73.03;99233.06;5018416;28;20033;-89
2023/07/04 01:09:53;;;;;;;13.07;7.97;;;;;;;21.11;72.47;99244.94;5018186;28;20051;-89
2023/07/04 01:12:18;;;;;;;12.43;8.73;;;;;;;21.09;73.24;99241.75;5018437;28;20487;-89
2023/07/04 01:14:44;;;;;;;12.70;8.65;;;;;;;20.92;74.33;99242.75;5018611;28;20025;-90
2023/07/04 01:17:09;;;;;;;14.60;8.85;;;;;;;20.81;74.65;99232.59;5017504;28;20072;-89
2023/07/04 01:19:35;;;;;;;14.85;8.85;;;;;;;20.76;74.97;99241.84;5023497;28;20025;-90
2023/07/04 01:22:20;;;;;;;13.38;8.02;;;;;;;20.87;74.82;99240.25;5003136;28;20025;-90
2023/07/04 01:25:14;;;;;;;11.25;7.85;;;;;;;20.87;72.79;99240.25;5018343;28;20025;-89
2023/07/04 01:27:41;;;;;;;10.30;7.93;;;;;;;20.93;73.62;99240.81;5001511;28;20526;-89
2023/07/04 01:30:07;;;;;;;8.57;6.95;;;;;;;21.01;71.89;99241.88;5018335;28;20056;-89
2023/07/04 01:32:34;;;;;;;8.45;6.82;;;;;;;20.95;71.65;99239.34;5018049;28;20021;-89
2023/07/04 01:35:00;;;;;;;9.82;5.97;;;;;;;20.98;71.58;99252.34;5018520;28;20036;-89
2023/07/04 01:37:29;;;;;;;8.05;6.45;;;;;;;20.91;71.27;99238.41;5018672;28;20108;-89
2023/07/04 01:39:58;;;;;;;8.93;6.90;;;;;;;20.88;71.27;99233.63;5017283;28;20103;-89
2023/07/04 01:42:31;;;;;;;10.98;7.70;;;;;;;20.88;71.06;99244.59;5018257;28;20030;-89
2023/07/04 01:45:04;;;;;;;11.30;8.43;;;;;;;20.87;71.64;99244.91;5018338;28;20033;-89
2023/07/04 01:47:30;;;;;;;9.77;7.15;;;;;;;20.89;71.22;99251.66;5034628;28;20123;-89
2023/07/04 01:49:55;;;;;;;9.80;7.68;;;;;;;20.74;73.12;99238.63;5017884;28;20034;-89
2023/07/04 01:52:21;;;;;;;9.23;8.10;;;;;;;20.70;73.82;99254.13;5017927;28;20032;-89
2023/07/04 01:54:46;;;;;;;10.40;8.50;;;;;;;20.61;73.91;99246.03;5002030;28;20078;-89
2023/07/04 01:57:12;;;;;;;13.60;8.85;;;;;;;20.59;74.23;99251.81;5018084;28;20041;-89
2023/07/04 01:59:37;;;;;;;15.73;8.98;;;;;;;20.48;74.84;99249.81;5017793;28;20033;-89
2023/07/04 02:02:03;;;;;;;15.43;9.05;;;;;;;20.41;74.93;99253.13;5017275;28;20503;-89
2023/07/04 02:04:28;;;;;;;15.30;9.05;;;;;;;20.37;75.67;99252.97;5018355;28;20034;-89
2023/07/04 02:06:54;;;;;;;13.68;9.02;;;;;;;20.36;75.83;99256.06;5018226;28;20384;-89
2023/07/04 02:09:20;;;;;;;14.02;8.75;;;;;;;20.26;75.71;99254.53;5002025;28;20025;-90
2023/07/04 02:11:46;;;;;;;13.45;8.68;;;;;;;20.26;76.03;99245.56;5001458;28;20035;-90
2023/07/04 02:14:13;;;;;;;10.70;8.40;;;;;;;20.23;75.90;99252.47;5017469;28;20030;-89
2023/07/04 02:16:38;;;;;;;11.35;8.95;;;;;;;20.08;76.52;99239.44;5001682;28;20107;-89
2023/07/04 02:19:04;;;;;;;12.15;8.80;;;;;;;20.04;76.30;99243.97;5017190;28;20025;-90
2023/07/04 02:21:29;;;;;;;11.15;7.90;;;;;;;19.99;76.48;99255.91;5018019;28;20037;-90
2023/07/04 02:23:55;;;;;;;12.50;7.85;;;;;;;19.89;76.54;99243.44;5018676;28;20037;-90
2023/07/04 02:26:20;;;;;;;12.90;8.60;;;;;;;19.90;77.04;99253.25;5018674;28;20021;-90
2023/07/04 02:28:46;;;;;;;9.52;8.40;;;;;;;19.88;76.67;99250.06;5002005;28;20017;-90
2023/07/04 02:31:13;;;;;;;12.30;8.85;;;;;;;19.79;76.75;99230.19;5017463;28;20021;-90
2023/07/04 02:33:38;;;;;;;11.50;8.38;;;;;;;19.88;76.91;99255.53;5017565;28;20025;-90
2023/07/04 02:36:04;;;;;;;11.73;7.95;;;;;;;19.88;77.10;99258.25;5001239;28;20029;-90
2023/07/04 02:38:30;;;;;;;12.55;8.60;;;;;;;19.85;76.80;99258.09;5017335;28;20080;-90
2023/07/04 02:40:55;;;;;;;10.82;8.43;;;;;;;19.80;76.83;99253.66;5016812;28;20483;-90
2023/07/04 02:43:21;;;;;;;9.82;7.32;;;;;;;19.87;76.80;99253.13;5017658;28;20036;-90
2023/07/04 02:45:46;;;;;;;11.35;8.75;;;;;;;19.84;77.14;99259.22;5017866;28;20029;-89
2023/07/04 02:48:13;;;;;;;11.50;8.32;;;;;;;19.95;76.35;99253.03;5017639;28;20112;-89
2023/07/04 02:50:39;;;;;;;9.85;7.82;;;;;;;19.96;76.18;99246.44;5017424;28;20028;-89
2023/07/04 02:53:04;;;;;;;17.20;8.50;;;;;;;19.98;76.14;99259.75;5017294;28;20423;-89
2023/07/04 02:55:30;;;;;;;15.35;8.45;;;;;;;19.85;76.90;99247.97;5016868;28;20064;-89
2023/07/04 02:57:55;;;;;;;12.32;8.70;;;;;;;19.90;76.89;99257.91;5017241;28;20021;-89
2023/07/04 03:00:21;;;;;;;15.40;9.57;;;;;;;19.84;77.34;99256.50;5001805;28;20025;-89
2023/07/04 03:02:46;;;;;;;10.75;8.38;;;;;;;19.76;77.35;99255.44;5017084;28;20084;-89
2023/07/04 03:05:12;;;;;;;12.90;8.27;;;;;;;19.79;77.57;99258.28;5013691;28;20030;-89
2023/07/04 03:07:37;;;;;;;11.52;8.18;;;;;;;19.84;77.10;99260.06;4997995;28;20022;-90
2023/07/04 03:10:03;;;;;;;14.80;7.68;;;;;;;19.75;76.29;99264.75;4998446;28;20088;-90
2023/07/04 03:12:28;;;;;;;12.90;7.47;;;;;;;19.70;76.02;99264.94;5017425;28;20026;-89
2023/07/04 03:14:54;;;;;;;10.18;7.78;;;;;;;19.75;75.96;99270.22;5000578;28;20029;-89
2023/07/04 03:17:19;;;;;;;9.32;7.03;;;;;;;19.75;75.41;99259.28;5016961;28;20045;-89
2023/07/04 03:19:45;;;;;;;12.18;6.65;;;;;;;19.72;75.38;99265.44;5034718;28;20546;-90
2023/07/04 03:22:10;;;;;;;13.57;7.35;;;;;;;19.77;75.33;99270.69;5016700;28;20116;-88
2023/07/04 03:24:36;;;;;;;10.98;7.15;;;;;;;19.83;75.54;99269.38;5016975;28;20025;-89
2023/07/04 03:27:01;;;;;;;9.43;7.32;;;;;;;19.90;75.52;99272.38;5016708;28;20021;-89
2023/07/04 03:29:27;;;;;;;11.25;7.55;;;;;;;19.94;75.03;99262.38;5016371;28;20406;-89
2023/07/04 03:31:52;;;;;;;11.48;7.38;;;;;;;19.92;75.35;99263.81;5016339;28;20036;-89
2023/07/04 03:34:18;;;;;;;11.77;7.78;;;;;;;19.98;75.60;99268.78;5017068;28;20021;-89
2023/07/04 03:36:43;;;;;;;13.98;7.70;;;;;;;20.00;75.71;99287.56;5016865;28;20036;-89
2023/07/04 03:39:09;;;;;;;9.95;7.97;;;;;;;19.95;75.91;99277.63;5001057;28;20018;-89
2023/07/04 03:41:34;;;;;;;17.65;7.95;;;;;;;19.92;76.03;99270.13;5020702;28;20079;-88
2023/07/04 03:44:00;;;;;;;11.77;8.23;;;;;;;19.89;75.84;99268.03;5004398;28;20534;-87
2023/07/04 03:46:26;;;;;;;15.20;8.00;;;;;;;19.94;75.69;99267.03;5020310;28;20036;-88
2023/07/04 03:48:52;;;;;;;10.60;7.53;;;;;;;19.97;75.45;99269.09;5036085;28;20022;-88
2023/07/04 03:51:17;;;;;;;12.93;7.95;;;;;;;20.02;75.16;99271.63;5004696;28;20026;-89
2023/07/04 03:53:43;;;;;;;16.80;9.15;;;;;;;19.97;74.08;99266.38;5020867;28;20594;-89
2023/07/04 03:56:08;;;;;;;13.25;6.57;;;;;;;20.08;74.02;99274.97;5005241;28;20040;-89
2023/07/04 03:58:34;;;;;;;10.05;6.70;;;;;;;20.03;74.59;99269.72;5017756;28;20026;-89
2023/07/04 04:01:00;;;;;;;14.23;7.47;;;;;;;20.05;74.44;99276.44;4985799;28;20116;-89
2023/07/04 04:03:25;;;;;;;13.73;7.20;;;;;;;20.25;73.61;99279.47;4983568;28;20037;-89
2023/07/04 04:05:51;;;;;;;8.68;6.93;;;;;;;20.13;74.20;99270.09;5001039;28;20022;-89
2023/07/04 04:08:16;;;;;;;14.07;7.57;;;;;;;20.21;74.10;99286.75;4984472;28;20508;-89
2023/07/04 04:10:45;;;;;;;10.43;7.32;;;;;;;20.21;74.28;99281.28;4998833;28;20032;-89
2023/07/04 04:13:11;;;;;;;10.90;6.78;;;;;;;20.31;72.70;99264.47;5005161;28;20033;-93
2023/07/04 04:15:36;;;;;;;11.93;7.28;;;;;;;20.59;71.64;99275.66;5017201;28;20034;-90
2023/07/04 04:18:02;;;;;;;13.15;7.00;;;;;;;20.70;71.23;99273.28;4984287;28;20053;-90
2023/07/04 04:20:27;;;;;;;13.13;7.43;;;;;;;20.52;72.63;99270.72;4985147;28;20040;-90
2023/07/04 04:22:53;;;;;;;10.40;6.95;;;;;;;20.47;72.27;99276.38;4967685;28;20037;-90
2023/07/04 04:25:19;;;;;;;17.00;8.13;;;;;;;20.59;72.21;99273.72;4985243;28;20084;-90
2023/07/04 04:27:48;;;;;;;13.75;7.10;;;;;;;20.82;71.67;99284.25;5000504;28;20506;-90
2023/07/04 04:30:16;;;;;;;10.68;7.25;;;;;;;20.98;70.60;99290.69;5002328;28;20034;-95
2023/07/04 04:32:45;;;;;;;10.18;6.78;;;;;;;20.95;70.22;99279.59;4986063;28;20030;-92
2023/07/04 04:35:10;;;;;;;11.27;6.57;;;;;;;21.15;68.99;99286.13;4986139;28;20025;-95
2023/07/04 04:37:36;;;;;;;9.38;6.30;;;;;;;21.34;68.32;99289.09;4986450;28;20026;-93
2023/07/04 04:40:04;;;;;;;9.55;6.40;;;;;;;21.51;67.96;99299.03;4985258;28;20057;-95
2023/07/04 04:42:34;;;;;;;15.38;6.43;;;;;;;21.46;68.91;99293.81;5002192;28;20108;-94
2023/07/04 04:45:00;;;;;;;13.70;6.40;;;;;;;21.36;69.15;99303.25;5001777;28;20099;-94
2023/07/04 04:47:25;;;;;;;12.20;6.53;;;;;;;21.34;69.41;99307.47;4984450;28;20484;-93
2023/07/04 04:49:51;;;;;;;10.27;7.18;;;;;;;21.42;69.62;99314.81;5015211;28;20025;-93
2023/07/04 04:52:20;;;;;;;12.77;7.90;;;;;;;21.39;69.38;99308.06;5015002;28;20096;-91
2023/07/04 04:54:47;;;;;;;13.32;7.85;;;;;;;21.50;69.32;99311.16;5003409;28;20032;-93
2023/07/04 04:57:13;;;;;;;14.10;8.38;;;;;;;21.52;68.80;99308.06;5002741;28;20524;-94
2023/07/04 04:59:39;;;;;;;13.90;8.77;;;;;;;21.50;68.91;99316.63;4989431;28;20036;-92
2023/07/04 05:02:05;;;;;;;15.93;9.35;;;;;;;21.50;68.33;99315.81;4987513;28;20018;-93
2023/07/04 05:04:39;;;;;;;12.65;9.45;;;;;;;21.49;68.54;99312.28;4987065;28;20069;-93
2023/07/04 05:07:05;;;;;;;15.77;8.70;;;;;;;21.70;68.26;99322.31;4990567;28;20030;-93
2023/07/04 05:09:31;;;;;;;13.05;9.30;;;;;;;21.68;67.49;99317.19;5014994;28;20450;-96
2023/07/04 05:12:00;;;;;;;21.25;9.38;;;;;;;21.77;68.02;99311.59;5021981;28;20037;-93
2023/07/04 05:14:29;;;;;;;13.65;8.13;;;;;;;21.78;68.71;99313.19;5024556;28;20147;-96
2023/07/04 05:16:54;;;;;;;12.23;8.77;;;;;;;21.97;68.02;99323.53;5013369;28;20050;-96
2023/07/04 05:19:20;;;;;;;15.40;8.43;;;;;;;22.06;67.59;99324.22;5011396;28;20052;-94
2023/07/04 05:21:50;;;;;;;14.48;8.43;;;;;;;22.07;67.45;99308.56;5032680;28;20009;-95
2023/07/04 05:24:15;;;;;;;16.83;8.63;;;;;;;22.27;66.68;99328.78;5015490;28;20521;-92
2023/07/04 05:27:04;;;;;;;15.15;8.90;;;;;;;22.35;66.43;99314.09;5009471;28;20034;-94
2023/07/04 05:29:30;;;;;;;17.08;9.85;;;;;;;22.60;64.90;99334.00;5009411;28;20625;-94
2023/07/04 05:32:04;;;;;;;19.35;9.23;;;;;;;22.63;65.51;99335.25;4991442;28;20021;-95
2023/07/04 05:34:31;;;;;;;14.00;9.05;;;;;;;22.57;65.31;99321.75;5009007;28;20037;-92
2023/07/04 05:37:01;;;;;;;13.75;9.15;;;;;;;22.60;65.00;99321.09;5004541;28;20121;-95
2023/07/04 05:39:57;;;;;;;14.40;9.18;;;;;;;22.90;64.74;99323.44;5002118;28;20032;-95
2023/07/04 05:42:24;;;;;;;15.50;9.10;;;;;;;22.80;64.36;99313.75;5008990;28;20105;-96
2023/07/04 05:52:29;;;;;;;13.82;7.88;;;;;;;23.23;62.49;99341.56;4950158;28;20484;-96
2023/07/04 06:05:13;;;;;;;9.90;6.68;;;;;;;23.60;60.84;99314.59;4882756;29;20044;-92
2023/07/04 06:07:39;;;;;;;9.90;7.13;;;;;;;23.53;60.87;99297.13;4866295;29;20039;-90
2023/07/04 06:13:41;;;;;;;11.57;7.32;;;;;;;23.78;60.63;99309.53;4846035;29;21218;-88
2023/07/04 06:16:15;;;;;;;14.10;8.20;;;;;;;24.03;60.43;99322.22;4880498;29;20040;-90
2023/07/04 06:18:43;;;;;;;14.35;7.38;;;;;;;24.03;60.28;99312.03;4991975;28;20118;-91
2023/07/04 06:21:16;;;;;;;10.10;7.38;;;;;;;24.27;58.94;99337.69;5011204;28;20480;-92
2023/07/04 06:23:41;;;;;;;13.55;6.90;;;;;;;24.32;59.27;99315.34;5009083;28;20034;-90
2023/07/04 06:26:11;;;;;;;10.32;6.28;;;;;;;24.46;59.29;99320.38;5003539;28;20025;-92
2023/07/04 06:28:36;;;;;;;14.27;6.65;;;;;;;24.48;59.44;99307.03;5000685;28;20022;-90
2023/07/04 06:31:41;;;;;;;11.98;6.53;;;;;;;24.82;57.97;99327.38;4992250;28;20028;-91
2023/07/04 06:34:10;;;;;;;10.07;6.40;;;;;;;24.87;58.39;99323.53;4956616;28;20476;-93
2023/07/04 06:36:36;;;;;;;8.55;6.07;;;;;;;25.00;56.85;99322.97;4974306;28;20025;-93
2023/07/04 06:39:01;;;;;;;11.90;6.60;;;;;;;24.89;56.62;99310.19;4985817;28;20110;-89
2023/07/04 06:44:54;;;;;;;11.68;6.80;;;;;;;25.14;57.39;99308.66;4989271;28;20033;-89
2023/07/04 06:47:20;;;;;;;19.83;9.95;;;;;;;25.40;56.72;99324.47;4984341;28;20034;-89
2023/07/04 06:49:45;;;;;;;13.43;7.00;;;;;;;25.40;55.76;99298.84;4983935;28;20025;-92
2023/07/04 06:52:16;;;;;;;13.45;7.93;;;;;;;25.57;54.67;99311.34;4985171;28;20026;-89
2023/07/04 06:54:42;;;;;;;22.25;7.85;;;;;;;25.63;54.42;99293.31;4987086;28;20484;-90
2023/07/04 06:57:13;;;;;;;27.60;14.98;;;;;;;25.82;54.79;99303.44;4967733;28;20026;-89
2023/07/04 06:59:39;;;;;;;11.88;6.47;;;;;;;25.92;54.12;99302.00;4968225;28;20022;-93
2023/07/04 07:02:59;;;;;;;13.60;7.57;;;;;;;25.91;53.87;99276.38;4984992;28;20018;-92
2023/07/04 07:05:26;;;;;;;21.10;10.68;;;;;;;26.12;54.07;99297.94;5005973;28;20042;-92
2023/07/04 07:07:59;;;;;;;13.57;8.48;;;;;;;26.25;53.98;99292.16;5006389;28;20033;-90
2023/07/04 07:10:24;;;;;;;12.07;6.75;;;;;;;26.37;53.00;99289.16;5499983;23;20054;-88
2023/07/04 07:12:53;;;;;;;9.88;6.60;;;;;;;26.41;52.09;99285.25;4976669;28;20456;-91
2023/07/04 07:15:19;;;;;;;17.13;7.05;;;;;;;26.52;51.87;99279.88;4986319;28;20034;-90
2023/07/04 07:17:44;;;;;;;12.65;7.70;;;;;;;26.70;51.74;99285.59;4996605;28;20030;-91
2023/07/04 07:20:13;;;;;;;13.40;7.20;;;;;;;26.81;50.42;99296.75;4989517;28;20060;-93
2023/07/04 07:22:38;;;;;;;12.38;6.63;;;;;;;26.79;50.55;99274.22;4969587;28;20037;-92
2023/07/04 07:25:34;;;;;;;12.40;6.63;;;;;;;26.94;50.12;99311.88;4973532;28;20030;-93
2023/07/04 07:27:59;;;;;;;10.23;6.47;;;;;;;26.93;50.22;99298.44;5006089;28;20049;-92
2023/07/04 07:30:36;;;;;;;14.52;8.63;;;;;;;27.00;49.75;99281.94;4989076;28;20456;-92
2023/07/04 07:33:24;;;;;;;;;;;;;;;;;;;;;
2023/07/04 07:35:53;;;;;;;10.93;7.30;;;;;;;27.22;49.91;99299.47;4991197;28;20129;-92
2023/07/04 07:38:21;;;;;;;14.30;6.25;;;;;;;27.26;50.03;99274.66;4967784;28;20570;-91
2023/07/04 07:41:11;;;;;;;11.88;6.50;;;;;;;27.54;49.90;99310.81;4991969;28;20029;-94
2023/07/04 07:43:38;;;;;;;11.20;6.13;;;;;;;27.48;49.29;99289.44;4993155;28;20022;-93
2023/07/04 07:46:11;;;;;;;9.15;6.75;;;;;;;27.68;48.44;99309.31;5005404;28;20068;-94
2023/07/04 07:49:00;;;;;;;11.65;8.65;;;;;;;27.56;48.60;99294.63;5000652;28;20040;-92
2023/07/04 07:51:26;;;;;;;12.75;6.93;;;;;;;27.67;49.22;99302.22;5009672;28;20026;-89
2023/07/04 07:53:53;;;;;;;14.65;7.05;;;;;;;27.77;49.47;99305.03;4989869;28;20042;-94
2023/07/04 07:56:23;;;;;;;9.20;5.97;;;;;;;27.92;48.59;99305.94;4978218;28;20022;-88
2023/07/04 07:58:55;;;;;;;15.00;6.40;;;;;;;27.92;47.34;99303.16;4993188;28;20480;-96
2023/07/04 08:01:34;;;;;;;11.32;6.00;;;;;;;27.84;47.47;99301.50;4987406;28;20014;-95
2023/07/04 08:04:03;;;;;;;14.02;6.82;;;;;;;27.93;47.59;99303.94;4984019;28;20064;-96
2023/07/04 08:06:41;;;;;;;19.00;7.35;;;;;;;27.91;49.11;99314.63;4977689;28;20022;-90
2023/07/04 08:09:12;;;;;;;10.32;6.05;;;;;;;27.79;47.45;99312.97;4978057;28;20022;-91
2023/07/04 08:11:41;;;;;;;11.98;6.05;;;;;;;27.82;48.17;99301.09;4954810;28;20487;-93
2023/07/04 08:14:11;;;;;;;9.52;5.88;;;;;;;27.92;46.55;99292.09;4947952;28;20026;-96
2023/07/04 08:16:45;;;;;;;10.80;6.65;;;;;;;27.91;47.65;99304.38;4958206;28;20044;-94
2023/07/04 08:19:43;;;;;;;10.93;6.95;;;;;;;28.03;46.56;99292.16;4969948;28;20057;-90
2023/07/04 08:22:21;;;;;;;11.02;6.10;;;;;;;28.19;45.85;99303.69;4981390;28;20495;-93
2023/07/04 08:24:58;;;;;;;8.75;6.10;;;;;;;28.27;46.29;99306.50;4973860;28;20568;-92
2023/07/04 08:27:25;;;;;;;8.35;5.88;;;;;;;28.29;46.02;99290.28;4960456;28;20038;-93
2023/07/04 08:30:10;;;;;;;13.30;6.07;;;;;;;28.50;45.49;99309.75;4959300;28;20045;-88
2023/07/04 08:32:38;;;;;;;11.80;6.07;;;;;;;28.29;45.25;99309.69;4995917;28;20038;-91
2023/07/04 08:35:07;;;;;;;9.57;5.55;;;;;;;28.11;46.07;99288.22;4951887;28;20042;-89
2023/07/04 08:37:32;;;;;;;12.02;5.78;;;;;;;28.16;45.36;99289.81;4954492;28;20026;-90
2023/07/04 08:39:58;;;;;;;15.98;6.20;;;;;;;28.40;45.47;99300.19;4955870;28;20042;-92
2023/07/04 08:42:25;;;;;;;10.35;5.80;;;;;;;28.50;45.59;99286.81;4957509;28;20031;-93
2023/07/04 08:44:54;;;;;;;9.20;5.47;;;;;;;28.64;45.11;99306.25;4958304;28;20042;-93
2023/07/04 08:57:51;;;;;;;13.63;6.22;;;;;;;28.74;45.05;99286.09;5132597;27;20428;-90
2023/07/04 09:00:44;;;;;;;10.15;6.53;;;;;;;28.92;45.35;99301.94;5073987;28;20027;-92
2023/07/04 09:03:54;;;;;;;8.80;5.72;;;;;;;29.04;44.78;99304.31;5110118;28;20516;-91
2023/07/04 09:06:51;;;;;;;7.43;5.50;;;;;;;29.14;45.00;99300.00;5109448;28;20034;-92
2023/07/04 09:10:06;;;;;;;9.77;4.88;;;;;;;29.20;44.35;99298.41;5104057;28;20122;-92
2023/07/04 09:12:34;;;;;;;10.80;6.28;;;;;;;29.24;44.38;99296.44;5130736;28;20118;-92
2023/07/04 09:15:27;;;;;;;7.38;5.28;;;;;;;29.34;44.28;99278.19;5087050;28;20019;-91
2023/07/04 09:18:18;;;;;;;8.18;5.10;;;;;;;29.40;43.66;99287.69;5119942;28;20063;-91
2023/07/04 09:20:55;;;;;;;6.30;4.27;;;;;;;29.51;42.92;99282.13;5103007;28;20016;-91
2023/07/04 09:23:33;;;;;;;6.13;4.07;;;;;;;29.39;41.80;99278.59;5102543;28;20272;-91
2023/07/04 09:25:59;;;;;;;8.45;4.85;;;;;;;29.35;42.71;99293.66;5060992;28;20067;-93
2023/07/04 09:28:25;;;;;;;6.40;4.32;;;;;;;29.22;42.88;99262.75;5076730;28;20506;-93
2023/07/04 09:30:53;;;;;;;8.40;4.57;;;;;;;29.49;41.79;99273.41;5060160;28;20051;-91
2023/07/04 09:33:19;;;;;;;12.05;4.50;;;;;;;29.78;42.96;99290.81;5078523;28;20036;-91
2023/07/04 09:35:48;;;;;;;7.13;4.53;;;;;;;29.91;42.04;99280.09;5056140;28;20104;-92
2023/07/04 09:38:14;;;;;;;7.57;4.05;;;;;;;30.05;42.07;99279.22;5071512;28;20033;-94
2023/07/04 09:40:41;;;;;;;7.63;4.70;;;;;;;30.04;42.28;99269.34;5049275;28;20037;-92
2023/07/04 09:44:22;;;;;;;9.90;5.30;;;;;;;30.37;42.27;99285.47;5080493;28;20037;-93
2023/07/04 09:46:50;;;;;;;5.65;4.13;;;;;;;30.10;41.06;99270.50;5055579;28;20037;-92
2023/07/04 09:49:33;;;;;;;6.25;4.15;;;;;;;30.37;41.89;99284.69;5059695;28;20060;-93
2023/07/04 09:52:13;;;;;;;6.65;4.25;;;;;;;30.51;41.58;99287.38;5061851;28;20041;-94
2023/07/04 09:54:40;;;;;;;10.35;4.50;;;;;;;30.47;41.31;99280.28;5058702;28;20609;-93
2023/07/04 09:57:25;;;;;;;7.10;4.43;;;;;;;30.56;41.01;99272.25;5074183;28;20090;-94
2023/07/04 09:59:51;;;;;;;9.88;5.22;;;;;;;30.61;40.58;99271.84;5082980;28;20092;-95
2023/07/04 10:05:35;;;;;;;5.95;3.83;;;;;;;30.60;39.95;99245.25;5447944;22;21201;-95
2023/07/04 10:08:12;;;;;;;6.15;4.40;;;;;;;30.59;40.08;99252.00;5007270;28;20035;-94
2023/07/04 10:11:00;;;;;;;4.60;3.95;;;;;;;30.33;41.04;99251.34;5011136;28;20045;-94
2023/07/04 10:13:36;;;;;;;6.15;4.00;;;;;;;30.36;40.91;99258.06;5045055;28;20033;-92
2023/07/04 10:16:17;;;;;;;10.25;4.80;;;;;;;30.23;41.23;99250.16;5028298;28;20044;-90
2023/07/04 10:18:43;;;;;;;;;;;;;;;30.55;41.35;99273.47;5021411;28;20024;-90
2023/07/04 10:21:09;;;;;;;7.15;4.60;;;;;;;30.63;42.50;99277.75;5040233;28;19919;-90
2023/07/04 10:24:38;;;;;;;;;;;;;;;;;;;;;
2023/07/04 10:27:12;;;;;;;7.95;4.63;;;;;;;30.70;42.19;99258.28;5041768;28;20132;-92
2023/07/04 10:30:50;;;;;;;5.72;4.18;;;;;;;30.81;41.87;99225.59;5020419;28;20037;-92
2023/07/04 10:34:29;;;;;;;7.72;5.15;;;;;;;30.81;41.27;99249.84;5005778;28;20551;-91
2023/07/04 10:36:55;;;;;;;6.38;4.82;;;;;;;30.86;40.95;99234.72;4974171;28;20039;-92
2023/07/04 10:39:44;;;;;;;7.32;4.75;;;;;;;30.94;41.22;99231.53;4954836;28;20031;-92
2023/07/04 10:42:21;;;;;;;7.57;4.53;;;;;;;30.97;40.67;99252.16;4958805;28;20042;-92
2023/07/04 10:45:13;;;;;;;6.53;4.25;;;;;;;31.19;40.83;99249.94;4986479;28;20078;-96
2023/07/04 10:47:44;;;;;;;8.15;4.38;;;;;;;31.16;40.31;99225.75;4988056;28;20100;-95
2023/07/04 10:50:27;;;;;;;5.97;4.53;;;;;;;31.24;41.51;99230.03;5043944;28;20120;-95
2023/07/04 10:53:05;;;;;;;5.18;4.68;;;;;;;31.27;40.04;99239.56;5151712;23;20071;-95
2023/07/04 10:55:32;;;;;;;9.57;6.00;;;;;;;31.35;39.56;99232.72;5032935;28;20502;-93
2023/07/04 11:01:23;;;;;;;6.05;4.70;;;;;;;31.33;39.45;99210.88;4993990;28;20121;-96
2023/07/04 11:07:28;;;;;;;7.78;5.30;;;;;;;31.39;39.66;99192.50;5080740;28;20128;-94
2023/07/04 11:09:55;;;;;;;7.93;5.07;;;;;;;31.55;38.82;99197.53;5035210;28;20085;-92
2023/07/04 11:20:40;;;;;;;6.63;4.45;;;;;;;31.60;37.26;99205.44;5089617;23;19923;-94
2023/07/04 11:23:17;;;;;;;5.80;4.63;;;;;;;31.39;37.79;99188.94;4924993;29;20036;-94
2023/07/04 11:32:18;;;;;;;7.65;6.00;;;;;;;31.81;38.41;99178.53;4915296;29;20050;-93
2023/07/04 11:35:09;;;;;;;12.48;4.78;;;;;;;31.93;37.18;99180.75;4920776;29;20023;-93
2023/07/04 11:38:13;;;;;;;5.57;4.55;;;;;;;31.96;36.20;99179.94;4927439;29;20024;-94
2023/07/04 11:41:06;;;;;;;7.28;4.43;;;;;;;31.90;37.44;99189.19;4829313;29;20042;-95
2023/07/04 11:44:16;;;;;;;12.05;4.70;;;;;;;31.54;36.24;99147.84;4877234;29;20147;-93
2023/07/04 11:47:18;;;;;;;9.32;5.55;;;;;;;31.89;36.84;99171.66;4843972;29;20041;-92
2023/07/04 11:49:58;;;;;;;;;;;;;;;31.86;36.55;99172.50;4818339;29;20038;-94
2023/07/04 11:55:37;;;;;;;8.27;4.68;;;;;;;32.07;36.91;99168.66;4801258;29;20047;-91
2023/07/04 11:58:18;;;;;;;7.15;4.40;;;;;;;32.01;37.00;99170.34;4803978;29;20030;-90
2023/07/04 12:00:52;;;;;;;6.00;4.15;;;;;;;32.07;35.76;99170.69;4823906;29;20065;-89
2023/07/04 12:03:29;;;;;;;5.32;4.18;;;;;;;32.06;35.88;99155.94;4832363;29;20011;-92
2023/07/04 12:06:04;;;;;;;5.15;4.20;;;;;;;32.21;36.25;99168.47;4836434;29;20050;-94
2023/07/04 12:08:47;;;;;;;8.32;4.90;;;;;;;32.35;35.69;99153.53;4833120;29;20043;-95
2023/07/04 12:11:38;;;;;;;5.15;4.10;;;;;;;32.33;35.04;99155.97;4857813;29;20033;-93
2023/07/04 12:14:04;;;;;;;9.45;4.15;;;;;;;32.26;34.73;99130.19;4859812;29;20148;-94
2023/07/04 12:16:30;;;;;;;6.45;4.50;;;;;;;32.38;35.16;99144.31;4868943;29;20063;-93
2023/07/04 12:18:56;;;;;;;7.57;5.18;;;;;;;32.44;35.78;99136.28;4862623;29;20018;-92
2023/07/04 12:21:22;;;;;;;6.22;4.45;;;;;;;32.37;34.96;99128.81;4889169;29;20051;-94
2023/07/04 12:23:51;;;;;;;5.88;4.20;;;;;;;32.48;35.00;99141.78;4902734;29;20027;-93
2023/07/04 12:29:29;;;;;;;5.60;4.20;;;;;;;32.61;33.70;99140.00;4856910;29;20125;-96
2023/07/04 12:32:14;;;;;;;7.43;4.13;;;;;;;32.48;33.56;99109.13;4844983;29;20049;-96
2023/07/04 12:34:45;;;;;;;7.72;4.80;;;;;;;32.66;34.64;99128.34;4841978;29;20034;-96
2023/07/04 12:37:41;;;;;;;;;;;;;;;;;;;;;
2023/07/04 12:43:37;;;;;;;8.80;4.45;;;;;;;33.25;33.36;99118.53;5119602;23;20059;-96
2023/07/04 12:46:09;;;;;;;9.07;4.25;;;;;;;33.20;31.85;99105.88;4876505;29;20048;-94
2023/07/04 12:48:53;;;;;;;8.43;4.50;;;;;;;33.48;32.30;99125.28;4904702;29;20035;-92
2023/07/04 12:55:06;;;;;;;6.22;4.30;;;;;;;33.31;32.93;99090.91;4904139;29;20072;-92
2023/07/04 12:58:39;;;;;;;5.85;4.65;;;;;;;33.46;30.93;99088.63;4865793;29;20012;-96
2023/07/04 13:01:05;;;;;;;5.13;4.05;;;;;;;33.65;31.13;99114.97;4888003;29;20056;-94
2023/07/04 13:03:43;;;;;;;6.47;3.60;;;;;;;33.48;31.06;99097.34;4874654;29;20040;-93
2023/07/04 13:06:32;;;;;;;4.97;3.92;;;;;;;33.05;31.25;99089.81;4879156;29;20044;-95
2023/07/04 13:33:00;;;;;;;6.75;4.10;;;;;;;32.95;31.31;99109.09;4922712;29;20047;-93